Aviation Digital Data Service (ADDS)

Output produced by METARs form (0017 UTC 19 October 2019)
found at http://www.aviationweather.gov/metar/data/
 
METAR text: RJOK 190000Z 36003KT 9999 VCSH FEW002 SCT008 BKN010 FEW025CB 23/21 Q1014
Conditions at: RJOK (KOCHI AIRPORT , JP) observed 0000 UTC 19 October 2019
Temperature: 23.0°C (73°F)
Dewpoint: 21.0°C (70°F) [RH = 89%]
Pressure (altimeter): 29.94 inches Hg (1014.0 mb)
Winds: from the N (360 degrees) at 3 MPH (3 knots; 1.5 m/s)
Visibility: 6 or more miles (10+ km)
Ceiling: 1000 feet AGL
Clouds: few clouds at 200 feet AGL
scattered clouds at 800 feet AGL
broken clouds at 1000 feet AGL
few clouds at 2500 feet AGL
Weather: VCSH  (showers in vicinity)

METAR text: RJOK 182300Z 36003KT 6000 -SHRA FEW002 BKN010 BKN015 FEW025CB 22/21 Q1014
Conditions at: RJOK (KOCHI AIRPORT , JP) observed 2300 UTC 18 October 2019
Temperature: 22.0°C (72°F)
Dewpoint: 21.0°C (70°F) [RH = 94%]
Pressure (altimeter): 29.94 inches Hg (1014.0 mb)
Winds: from the N (360 degrees) at 3 MPH (3 knots; 1.5 m/s)
Visibility: 4 miles ( 6 km)
Ceiling: 1000 feet AGL
Clouds: few clouds at 200 feet AGL
broken clouds at 1000 feet AGL
broken clouds at 1500 feet AGL
few clouds at 2500 feet AGL
Weather: -SHRA  (light rain showers)

METAR text: RJOK 182200Z 12006KT 9999 VCSH FEW003 SCT008 BKN010 23/21 Q1013
Conditions at: RJOK (KOCHI AIRPORT , JP) observed 2200 UTC 18 October 2019
Temperature: 23.0°C (73°F)
Dewpoint: 21.0°C (70°F) [RH = 89%]
Pressure (altimeter): 29.91 inches Hg (1013.0 mb)
Winds: from the ESE (120 degrees) at 7 MPH (6 knots; 3.1 m/s)
Visibility: 6 or more miles (10+ km)
Ceiling: 1000 feet AGL
Clouds: few clouds at 300 feet AGL
scattered clouds at 800 feet AGL
broken clouds at 1000 feet AGL
Weather: VCSH  (showers in vicinity)

METAR text: RJOK 182110Z VRB01KT 9999 VCSH FEW003 SCT008 BKN009 22/21 Q1013 RMK 1ST003 4ST008 5ST009 A2992
Conditions at: RJOK (KOCHI AIRPORT , JP) observed 2110 UTC 18 October 2019
Temperature: 22.0°C (72°F)
Dewpoint: 21.0°C (70°F) [RH = 94%]
Pressure (altimeter): 29.91 inches Hg (1013.0 mb)
Winds: variable direction winds at 1 MPH (1 knots; 0.5 m/s)
Visibility: 6 or more miles (10+ km)
Ceiling: 900 feet AGL
Clouds: few clouds at 300 feet AGL
scattered clouds at 800 feet AGL
broken clouds at 900 feet AGL
Weather: VCSH  (showers in vicinity)

METAR text: RJOK 181122Z 02006KT 5000 -SHRA BR FEW003 SCT010 BKN015 FEW025CB 22/20 Q1015 RMK 1ST003 3ST010 5CU015 1CB025 A2999 LIGHTNING S
Conditions at: RJOK (KOCHI AIRPORT , JP) observed 1122 UTC 18 October 2019
Temperature: 22.0°C (72°F)
Dewpoint: 20.0°C (68°F) [RH = 88%]
Pressure (altimeter): 29.97 inches Hg (1015.0 mb)
Winds: from the NNE (20 degrees) at 7 MPH (6 knots; 3.1 m/s)
Visibility: 3 miles ( 5 km)
Ceiling: 1500 feet AGL
Clouds: few clouds at 300 feet AGL
scattered clouds at 1000 feet AGL
broken clouds at 1500 feet AGL
few clouds at 2500 feet AGL
Weather: -SHRA BR  (light rain showers, mist)

METAR text: RJOK 181100Z 34006KT 310V040 3000 SHRA BR FEW003 BKN010 BKN015 22/20 Q1015
Conditions at: RJOK (KOCHI AIRPORT , JP) observed 1100 UTC 18 October 2019
Temperature: 22.0°C (72°F)
Dewpoint: 20.0°C (68°F) [RH = 88%]
Pressure (altimeter): 29.97 inches Hg (1015.0 mb)
Winds: from the NNW (340 degrees) at 7 MPH (6 knots; 3.1 m/s)
Visibility: 1.86 miles (2.99 km)
Ceiling: 1000 feet AGL
Clouds: few clouds at 300 feet AGL
broken clouds at 1000 feet AGL
broken clouds at 1500 feet AGL
Weather: SHRA BR  (rain showers, mist)

METAR text: RJOK 181043Z 34007KT 3000 SHRA BR FEW003 BKN010 BKN015 22/20 Q1016 RMK 1ST003 5ST010 6CU015 A3000
Conditions at: RJOK (KOCHI AIRPORT , JP) observed 1043 UTC 18 October 2019
Temperature: 22.0°C (72°F)
Dewpoint: 20.0°C (68°F) [RH = 88%]
Pressure (altimeter): 30.00 inches Hg (1016.0 mb)
Winds: from the NNW (340 degrees) at 8 MPH (7 knots; 3.6 m/s)
Visibility: 1.86 miles (2.99 km)
Ceiling: 1000 feet AGL
Clouds: few clouds at 300 feet AGL
broken clouds at 1000 feet AGL
broken clouds at 1500 feet AGL
Weather: SHRA BR  (rain showers, mist)

METAR text: RJOK 181024Z 35006KT 4000 -SHRA BR FEW003 SCT010 BKN015 FEW025CB 22/20 Q1015 RMK 1ST003 3ST010 5CU015 1CB025 A3000 CB 20KM NW MOV NE
Conditions at: RJOK (KOCHI AIRPORT , JP) observed 1024 UTC 18 October 2019
Temperature: 22.0°C (72°F)
Dewpoint: 20.0°C (68°F) [RH = 88%]
Pressure (altimeter): 29.97 inches Hg (1015.0 mb)
Winds: from the N (350 degrees) at 7 MPH (6 knots; 3.1 m/s)
Visibility: 2.49 miles (4.01 km)
Ceiling: 1500 feet AGL
Clouds: few clouds at 300 feet AGL
scattered clouds at 1000 feet AGL
broken clouds at 1500 feet AGL
few clouds at 2500 feet AGL
Weather: -SHRA BR  (light rain showers, mist)

METAR text: RJOK 181000Z 33004KT 3000 R32/1200VP1800D SHRA BR FEW003 BKN010 BKN015 FEW025CB 22/20 Q1015
Conditions at: RJOK (KOCHI AIRPORT , JP) observed 1000 UTC 18 October 2019
Temperature: 22.0°C (72°F)
Dewpoint: 20.0°C (68°F) [RH = 88%]
Pressure (altimeter): 29.97 inches Hg (1015.0 mb)
Winds: from the NNW (330 degrees) at 5 MPH (4 knots; 2.1 m/s)
Visibility: 1.86 miles (2.99 km)
Ceiling: 1000 feet AGL
Clouds: few clouds at 300 feet AGL
broken clouds at 1000 feet AGL
broken clouds at 1500 feet AGL
few clouds at 2500 feet AGL
Weather: SHRA BR  (rain showers, mist)

METAR text: RJOK 180918Z 29004KT 5000 SHRA BR FEW003 BKN025 FEW025CB BKN035 22/20 Q1015 RMK 1ST003 5CU025 1CB025 6CU035 A2999 CB 30KM S MOV NE
Conditions at: RJOK (KOCHI AIRPORT , JP) observed 0918 UTC 18 October 2019
Temperature: 22.0°C (72°F)
Dewpoint: 20.0°C (68°F) [RH = 88%]
Pressure (altimeter): 29.97 inches Hg (1015.0 mb)
Winds: from the WNW (290 degrees) at 5 MPH (4 knots; 2.1 m/s)
Visibility: 3 miles ( 5 km)
Ceiling: 2500 feet AGL
Clouds: few clouds at 300 feet AGL
broken clouds at 2500 feet AGL
few clouds at 2500 feet AGL
broken clouds at 3500 feet AGL
Weather: SHRA BR  (rain showers, mist)

METAR text: RJOK 180900Z 33003KT 4000 +SHRA BR FEW003 FEW025CB BKN035 BKN050 22/20 Q1015
Conditions at: RJOK (KOCHI AIRPORT , JP) observed 0900 UTC 18 October 2019
Temperature: 22.0°C (72°F)
Dewpoint: 20.0°C (68°F) [RH = 88%]
Pressure (altimeter): 29.97 inches Hg (1015.0 mb)
Winds: from the NNW (330 degrees) at 3 MPH (3 knots; 1.5 m/s)
Visibility: 2.49 miles (4.01 km)
Ceiling: 3500 feet AGL
Clouds: few clouds at 300 feet AGL
few clouds at 2500 feet AGL
broken clouds at 3500 feet AGL
broken clouds at 5000 feet AGL
Weather: +SHRA BR  (heavy rain showers, mist)

METAR text: RJOK 180830Z 02004KT 9999 -SHRA FEW003 BKN030 BKN050 22/20 Q1015 RMK 1ST003 5CU030 6SC050 A2998
Conditions at: RJOK (KOCHI AIRPORT , JP) observed 0830 UTC 18 October 2019
Temperature: 22.0°C (72°F)
Dewpoint: 20.0°C (68°F) [RH = 88%]
Pressure (altimeter): 29.97 inches Hg (1015.0 mb)
Winds: from the NNE (20 degrees) at 5 MPH (4 knots; 2.1 m/s)
Visibility: 6 or more miles (10+ km)
Ceiling: 3000 feet AGL
Clouds: few clouds at 300 feet AGL
broken clouds at 3000 feet AGL
broken clouds at 5000 feet AGL
Weather: -SHRA  (light rain showers)

METAR text: RJOK 180800Z 02006KT 9999 SHRA FEW003 SCT020 BKN035 23/20 Q1015
Conditions at: RJOK (KOCHI AIRPORT , JP) observed 0800 UTC 18 October 2019
Temperature: 23.0°C (73°F)
Dewpoint: 20.0°C (68°F) [RH = 83%]
Pressure (altimeter): 29.97 inches Hg (1015.0 mb)
Winds: from the NNE (20 degrees) at 7 MPH (6 knots; 3.1 m/s)
Visibility: 6 or more miles (10+ km)
Ceiling: 3500 feet AGL
Clouds: few clouds at 300 feet AGL
scattered clouds at 2000 feet AGL
broken clouds at 3500 feet AGL
Weather: SHRA  (rain showers)

METAR text: RJOK 180700Z 32004KT 9999 -SHRA FEW015 BKN030 BKN045 23/20 Q1016
Conditions at: RJOK (KOCHI AIRPORT , JP) observed 0700 UTC 18 October 2019
Temperature: 23.0°C (73°F)
Dewpoint: 20.0°C (68°F) [RH = 83%]
Pressure (altimeter): 30.00 inches Hg (1016.0 mb)
Winds: from the NW (320 degrees) at 5 MPH (4 knots; 2.1 m/s)
Visibility: 6 or more miles (10+ km)
Ceiling: 3000 feet AGL
Clouds: few clouds at 1500 feet AGL
broken clouds at 3000 feet AGL
broken clouds at 4500 feet AGL
Weather: -SHRA  (light rain showers)

METAR text: RJOK 180600Z 29006KT 250V320 9999 -SHRA FEW020 BKN030 BKN045 24/19 Q1016
Conditions at: RJOK (KOCHI AIRPORT , JP) observed 0600 UTC 18 October 2019
Temperature: 24.0°C (75°F)
Dewpoint: 19.0°C (66°F) [RH = 74%]
Pressure (altimeter): 30.00 inches Hg (1016.0 mb)
Winds: from the WNW (290 degrees) at 7 MPH (6 knots; 3.1 m/s)
Visibility: 6 or more miles (10+ km)
Ceiling: 3000 feet AGL
Clouds: few clouds at 2000 feet AGL
broken clouds at 3000 feet AGL
broken clouds at 4500 feet AGL
Weather: -SHRA  (light rain showers)

METAR text: RJOK 180500Z 21006KT 170V300 9999 -SHRA FEW020 BKN030 BKN050 25/20 Q1016
Conditions at: RJOK (KOCHI AIRPORT , JP) observed 0500 UTC 18 October 2019
Temperature: 25.0°C (77°F)
Dewpoint: 20.0°C (68°F) [RH = 74%]
Pressure (altimeter): 30.00 inches Hg (1016.0 mb)
Winds: from the SSW (210 degrees) at 7 MPH (6 knots; 3.1 m/s)
Visibility: 6 or more miles (10+ km)
Ceiling: 3000 feet AGL
Clouds: few clouds at 2000 feet AGL
broken clouds at 3000 feet AGL
broken clouds at 5000 feet AGL
Weather: -SHRA  (light rain showers)

METAR text: RJOK 180400Z 16005KT 130V240 9999 -SHRA FEW020 SCT030 BKN080 25/19 Q1017
Conditions at: RJOK (KOCHI AIRPORT , JP) observed 0400 UTC 18 October 2019
Temperature: 25.0°C (77°F)
Dewpoint: 19.0°C (66°F) [RH = 69%]
Pressure (altimeter): 30.03 inches Hg (1017.0 mb)
Winds: from the SSE (160 degrees) at 6 MPH (5 knots; 2.6 m/s)
Visibility: 6 or more miles (10+ km)
Ceiling: 8000 feet AGL
Clouds: few clouds at 2000 feet AGL
scattered clouds at 3000 feet AGL
broken clouds at 8000 feet AGL
Weather: -SHRA  (light rain showers)

METAR text: RJOK 180300Z 19003KT 140V220 9999 VCSH FEW020 BKN035 BKN060 25/18 Q1018
Conditions at: RJOK (KOCHI AIRPORT , JP) observed 0300 UTC 18 October 2019
Temperature: 25.0°C (77°F)
Dewpoint: 18.0°C (64°F) [RH = 65%]
Pressure (altimeter): 30.06 inches Hg (1018.0 mb)
Winds: from the S (190 degrees) at 3 MPH (3 knots; 1.5 m/s)
Visibility: 6 or more miles (10+ km)
Ceiling: 3500 feet AGL
Clouds: few clouds at 2000 feet AGL
broken clouds at 3500 feet AGL
broken clouds at 6000 feet AGL
Weather: VCSH  (showers in vicinity)

METAR text: RJOK 180200Z 34005KT 300V360 9999 VCSH FEW025 SCT035 BKN060 25/18 Q1019
Conditions at: RJOK (KOCHI AIRPORT , JP) observed 0200 UTC 18 October 2019
Temperature: 25.0°C (77°F)
Dewpoint: 18.0°C (64°F) [RH = 65%]
Pressure (altimeter): 30.09 inches Hg (1019.0 mb)
Winds: from the NNW (340 degrees) at 6 MPH (5 knots; 2.6 m/s)
Visibility: 6 or more miles (10+ km)
Ceiling: 6000 feet AGL
Clouds: few clouds at 2500 feet AGL
scattered clouds at 3500 feet AGL
broken clouds at 6000 feet AGL
Weather: VCSH  (showers in vicinity)

METAR text: RJOK 180100Z 34005KT 9999 FEW030 BKN035 BKN050 23/18 Q1019
Conditions at: RJOK (KOCHI AIRPORT , JP) observed 0100 UTC 18 October 2019
Temperature: 23.0°C (73°F)
Dewpoint: 18.0°C (64°F) [RH = 73%]
Pressure (altimeter): 30.09 inches Hg (1019.0 mb)
Winds: from the NNW (340 degrees) at 6 MPH (5 knots; 2.6 m/s)
Visibility: 6 or more miles (10+ km)
Ceiling: 3500 feet AGL
Clouds: few clouds at 3000 feet AGL
broken clouds at 3500 feet AGL
broken clouds at 5000 feet AGL
Weather: no significant weather observed at this time

METAR text: RJOK 180000Z 33006KT 9999 FEW025 SCT035 BKN050 23/17 Q1019
Conditions at: RJOK (KOCHI AIRPORT , JP) observed 0000 UTC 18 October 2019
Temperature: 23.0°C (73°F)
Dewpoint: 17.0°C (63°F) [RH = 69%]
Pressure (altimeter): 30.09 inches Hg (1019.0 mb)
Winds: from the NNW (330 degrees) at 7 MPH (6 knots; 3.1 m/s)
Visibility: 6 or more miles (10+ km)
Ceiling: 5000 feet AGL
Clouds: few clouds at 2500 feet AGL
scattered clouds at 3500 feet AGL
broken clouds at 5000 feet AGL
Weather: no significant weather observed at this time

METAR text: RJOK 172300Z 33007KT 9999 FEW020 SCT030 BKN040 21/17 Q1019
Conditions at: RJOK (KOCHI AIRPORT , JP) observed 2300 UTC 17 October 2019
Temperature: 21.0°C (70°F)
Dewpoint: 17.0°C (63°F) [RH = 78%]
Pressure (altimeter): 30.09 inches Hg (1019.0 mb)
Winds: from the NNW (330 degrees) at 8 MPH (7 knots; 3.6 m/s)
Visibility: 6 or more miles (10+ km)
Ceiling: 4000 feet AGL
Clouds: few clouds at 2000 feet AGL
scattered clouds at 3000 feet AGL
broken clouds at 4000 feet AGL
Weather: no significant weather observed at this time

METAR text: RJOK 172200Z 33007KT 9999 FEW015 SCT060 BKN120 20/17 Q1019
Conditions at: RJOK (KOCHI AIRPORT , JP) observed 2200 UTC 17 October 2019
Temperature: 20.0°C (68°F)
Dewpoint: 17.0°C (63°F) [RH = 83%]
Pressure (altimeter): 30.09 inches Hg (1019.0 mb)
Winds: from the NNW (330 degrees) at 8 MPH (7 knots; 3.6 m/s)
Visibility: 6 or more miles (10+ km)
Ceiling: 12000 feet AGL
Clouds: few clouds at 1500 feet AGL
scattered clouds at 6000 feet AGL
broken clouds at 12000 feet AGL
Weather: no significant weather observed at this time

METAR text: RJOK 172110Z 33007KT 9999 VCSH FEW015 SCT035 BKN050 20/17 Q1019 RMK 1CU015 3CU035 6SC050 A3011
Conditions at: RJOK (KOCHI AIRPORT , JP) observed 2110 UTC 17 October 2019
Temperature: 20.0°C (68°F)
Dewpoint: 17.0°C (63°F) [RH = 83%]
Pressure (altimeter): 30.09 inches Hg (1019.0 mb)
Winds: from the NNW (330 degrees) at 8 MPH (7 knots; 3.6 m/s)
Visibility: 6 or more miles (10+ km)
Ceiling: 5000 feet AGL
Clouds: few clouds at 1500 feet AGL
scattered clouds at 3500 feet AGL
broken clouds at 5000 feet AGL
Weather: VCSH  (showers in vicinity)

Forecast for: RJOK (KOCHI AIRPORT , JP)
Text: TAF RJOK 182312Z 1900/2006 36004KT 9000 -SHRA FEW005 SCT008 BKN015
Forecast period: 0000 UTC 19 October 2019 to 0600 UTC 20 October 2019
Forecast type: FROM: standard forecast or significant change
Winds: from the N (360 degrees) at 5 MPH (4 knots; 2.1 m/s)
Visibility: 6 miles (9 km)
Ceiling: 1500 feet AGL
Clouds: few clouds at 500 feet AGL
scattered clouds at 800 feet AGL
broken clouds at 1500 feet AGL
Weather: -SHRA  (light rain showers)
Text: BECMG 1900/1902 17006KT
Forecast period: 0000 to 0600 UTC 19 October 2019
Forecast type: BECOMING: Conditions expected to become as follows by 0200 UTC 19 October 2019
Winds: from the S (170 degrees) at 7 MPH (6 knots; 3.1 m/s)
Visibility: 6 miles (9 km)
Ceiling: 1500 feet AGL
Clouds: few clouds at 500 feet AGL
scattered clouds at 800 feet AGL
broken clouds at 1500 feet AGL
Weather: -SHRA  (light rain showers)
Text: BECMG 1906/1908 35009KT
Forecast period: 0600 UTC 19 October 2019 to 0600 UTC 20 October 2019
Forecast type: BECOMING: Conditions expected to become as follows by 0800 UTC 19 October 2019
Winds: from the N (350 degrees) at 10 MPH (9 knots; 4.6 m/s)
Visibility: 6 miles (9 km)
Ceiling: 1500 feet AGL
Clouds: few clouds at 500 feet AGL
scattered clouds at 800 feet AGL
broken clouds at 1500 feet AGL
Weather: -SHRA  (light rain showers)